Time;durP1;ratioP1;P1;durP2;ratioP2;P2;SDS_P1;SDS_P2;PMS_P1;PMS_P2;Temp;Humidity;BMP_temperature;BMP_pressure;BME280_temperature;BME280_humidity;BME280_pressure;Samples;Min_cycle;Max_cycle;Signal;HPM_P1;HPM_P2
2024/04/26 00:01:00;;;;;;;3.10;2.22;;;;;;;;;;5491069;26;20367;-78
2024/04/26 00:03:26;;;;;;;3.10;2.10;;;;;;;;;;5490480;26;20322;-78
2024/04/26 00:05:52;;;;;;;2.30;2.10;;;;;;;;;;5490959;26;20367;-78
2024/04/26 00:08:19;;;;;;;2.13;1.92;;;;;;;;;;5491287;26;20355;-78
2024/04/26 00:10:45;;;;;;;2.72;2.42;;;;;;;;;;5491316;26;20323;-78
2024/04/26 00:13:11;;;;;;;2.67;2.20;;;;;;;;;;5491720;26;20370;-78
2024/04/26 00:15:37;;;;;;;2.85;2.35;;;;;;;;;;5508177;26;20343;-78
2024/04/26 00:18:03;;;;;;;2.63;2.08;;;;;;;;;;5527583;26;20372;-78
2024/04/26 00:20:29;;;;;;;2.97;2.00;;;;;;;;;;5527305;26;20854;-78
2024/04/26 00:22:55;;;;;;;3.17;2.08;;;;;;;;;;5527073;26;20371;-78
2024/04/26 00:25:22;;;;;;;3.20;2.35;;;;;;;;;;5526840;26;20666;-78
2024/04/26 00:27:47;;;;;;;2.72;2.05;;;;;;;;;;5527159;26;20328;-78
2024/04/26 00:30:13;;;;;;;2.35;2.10;;;;;;;;;;5527277;26;20698;-78
2024/04/26 00:32:40;;;;;;;4.07;2.33;;;;;;;;;;5527445;26;20370;-78
2024/04/26 00:35:06;;;;;;;2.10;1.88;;;;;;;;;;5527762;26;20324;-78
2024/04/26 00:37:32;;;;;;;2.75;2.08;;;;;;;;;;5527252;26;20364;-78
2024/04/26 00:39:58;;;;;;;2.80;2.00;;;;;;;;;;5527330;26;20335;-78
2024/04/26 00:42:24;;;;;;;3.55;2.20;;;;;;;;;;5521523;26;20335;-78
2024/04/26 00:44:50;;;;;;;3.45;2.00;;;;;;;;;;5527111;26;20833;-78
2024/04/26 00:47:16;;;;;;;2.40;2.20;;;;;;;;;;5526865;26;20358;-78
2024/04/26 00:49:44;;;;;;;2.53;1.88;;;;;;;;;;5527505;26;20332;-78
2024/04/26 00:52:11;;;;;;;2.85;2.30;;;;;;;;;;5527052;26;20885;-78
2024/04/26 00:54:37;;;;;;;2.90;2.10;;;;;;;;;;5526946;26;20359;-78
2024/04/26 00:57:04;;;;;;;2.28;1.92;;;;;;;;;;5527203;26;20812;-78
2024/04/26 00:59:30;;;;;;;3.88;1.92;;;;;;;;;;5528250;26;20332;-78
2024/04/26 01:01:56;;;;;;;2.83;1.90;;;;;;;;;;5526835;26;20424;-78
2024/04/26 01:04:22;;;;;;;2.17;1.80;;;;;;;;;;5526783;26;20327;-78
2024/04/26 01:06:48;;;;;;;2.17;1.80;;;;;;;;;;5526999;26;20327;-78
2024/04/26 01:09:14;;;;;;;2.22;1.98;;;;;;;;;;5526709;26;20737;-78
2024/04/26 01:11:40;;;;;;;2.63;1.95;;;;;;;;;;5526616;26;20664;-78
2024/04/26 01:14:07;;;;;;;2.78;2.10;;;;;;;;;;5527453;26;20799;-78
2024/04/26 01:16:33;;;;;;;2.40;1.80;;;;;;;;;;5527509;26;20320;-78
2024/04/26 01:18:59;;;;;;;3.42;1.95;;;;;;;;;;5527676;26;20323;-78
2024/04/26 01:21:25;;;;;;;2.10;1.90;;;;;;;;;;5527690;26;20837;-78
2024/04/26 01:23:51;;;;;;;2.65;2.00;;;;;;;;;;5527384;26;20397;-78
2024/04/26 01:26:18;;;;;;;2.57;2.30;;;;;;;;;;5527518;26;20428;-78
2024/04/26 01:28:44;;;;;;;2.70;2.05;;;;;;;;;;5527654;26;20343;-78
2024/04/26 01:31:10;;;;;;;2.38;2.17;;;;;;;;;;5527432;26;20331;-78
2024/04/26 01:33:36;;;;;;;3.50;2.38;;;;;;;;;;5527679;26;20355;-79
2024/04/26 01:36:02;;;;;;;2.83;2.10;;;;;;;;;;5526454;26;20332;-78
2024/04/26 01:38:28;;;;;;;2.40;1.98;;;;;;;;;;5526653;26;20388;-78
2024/04/26 01:40:54;;;;;;;2.97;2.33;;;;;;;;;;5526350;26;20320;-78
2024/04/26 01:43:20;;;;;;;3.20;2.40;;;;;;;;;;5517985;26;20542;-78
2024/04/26 01:45:46;;;;;;;3.22;2.00;;;;;;;;;;5527966;26;20396;-78
2024/04/26 01:48:12;;;;;;;4.25;2.33;;;;;;;;;;5527267;26;20320;-78
2024/04/26 01:50:38;;;;;;;3.10;2.20;;;;;;;;;;5528248;26;20376;-78
2024/04/26 01:53:04;;;;;;;2.60;2.20;;;;;;;;;;5527459;26;20861;-79
2024/04/26 01:55:30;;;;;;;2.83;2.20;;;;;;;;;;5527626;26;20872;-78
2024/04/26 01:57:56;;;;;;;3.20;2.08;;;;;;;;;;5528018;26;20360;-78
2024/04/26 02:00:22;;;;;;;4.13;2.30;;;;;;;;;;5527515;26;20912;-78
2024/04/26 02:02:50;;;;;;;4.15;2.45;;;;;;;;;;5527379;26;20665;-78
2024/04/26 02:05:16;;;;;;;2.45;2.25;;;;;;;;;;5527893;26;20320;-78
2024/04/26 02:07:42;;;;;;;3.35;2.53;;;;;;;;;;5527564;26;20395;-78
2024/04/26 02:10:08;;;;;;;2.45;2.20;;;;;;;;;;5527180;26;20324;-78
2024/04/26 02:12:34;;;;;;;2.97;2.22;;;;;;;;;;5528131;26;20327;-78
2024/04/26 02:15:00;;;;;;;3.40;2.50;;;;;;;;;;5527804;26;20362;-78
2024/04/26 02:17:27;;;;;;;4.75;2.40;;;;;;;;;;5528183;26;20332;-78
2024/04/26 02:19:53;;;;;;;2.55;2.20;;;;;;;;;;5527805;26;20792;-78
2024/04/26 02:22:19;;;;;;;3.60;2.40;;;;;;;;;;5527435;26;20363;-78
2024/04/26 02:24:45;;;;;;;3.13;2.40;;;;;;;;;;5526380;26;20378;-78
2024/04/26 02:27:11;;;;;;;3.40;2.30;;;;;;;;;;5527397;26;20339;-78
2024/04/26 02:29:37;;;;;;;3.22;2.30;;;;;;;;;;5526222;26;20434;-78
2024/04/26 02:32:03;;;;;;;3.92;2.50;;;;;;;;;;5526248;26;20355;-78
2024/04/26 02:34:30;;;;;;;3.45;2.33;;;;;;;;;;5525605;26;20839;-78
2024/04/26 02:36:56;;;;;;;3.45;2.28;;;;;;;;;;5525622;26;20323;-78
2024/04/26 02:39:22;;;;;;;4.90;2.70;;;;;;;;;;5526949;26;20335;-78
2024/04/26 02:41:48;;;;;;;4.05;2.67;;;;;;;;;;5527109;26;20340;-78
2024/04/26 02:44:14;;;;;;;3.97;2.78;;;;;;;;;;5489039;26;20375;-78
2024/04/26 02:46:40;;;;;;;3.65;2.78;;;;;;;;;;5490837;26;20370;-78
2024/04/26 02:49:09;;;;;;;4.45;2.92;;;;;;;;;;5490286;26;20374;-79
2024/04/26 02:51:35;;;;;;;3.40;2.72;;;;;;;;;;5490258;26;20353;-78
2024/04/26 02:54:01;;;;;;;3.70;2.70;;;;;;;;;;5490161;26;20326;-78
2024/04/26 02:56:27;;;;;;;3.17;2.38;;;;;;;;;;5490618;26;20371;-78
2024/04/26 02:58:53;;;;;;;3.58;2.42;;;;;;;;;;5489754;26;20691;-78
2024/04/26 03:01:20;;;;;;;3.72;2.58;;;;;;;;;;5489077;26;20330;-78
2024/04/26 03:03:46;;;;;;;3.40;2.72;;;;;;;;;;5489313;26;20733;-78
2024/04/26 03:06:13;;;;;;;4.23;2.87;;;;;;;;;;5489432;26;20826;-78
2024/04/26 03:08:40;;;;;;;3.65;3.00;;;;;;;;;;5489836;26;20826;-78
2024/04/26 03:11:07;;;;;;;3.65;3.15;;;;;;;;;;5490065;26;20423;-78
2024/04/26 03:13:34;;;;;;;2.75;2.55;;;;;;;;;;5489167;26;20318;-78
2024/04/26 03:16:00;;;;;;;3.55;3.05;;;;;;;;;;5490036;26;20358;-78
2024/04/26 03:18:26;;;;;;;4.20;3.58;;;;;;;;;;5489360;26;20834;-78
2024/04/26 03:20:52;;;;;;;3.50;2.80;;;;;;;;;;5490061;26;20326;-78
2024/04/26 03:23:21;;;;;;;3.15;2.50;;;;;;;;;;5489481;26;20867;-78
2024/04/26 03:25:47;;;;;;;3.38;2.80;;;;;;;;;;5489268;26;20345;-78
2024/04/26 03:28:13;;;;;;;2.47;2.28;;;;;;;;;;5488391;26;20807;-78
2024/04/26 03:30:39;;;;;;;3.33;2.92;;;;;;;;;;5489035;26;20314;-78
2024/04/26 03:33:06;;;;;;;3.40;3.10;;;;;;;;;;5488584;26;20367;-78
2024/04/26 03:35:33;;;;;;;3.15;2.85;;;;;;;;;;5489224;26;20832;-78
2024/04/26 03:37:59;;;;;;;4.00;2.83;;;;;;;;;;5489686;26;20330;-78
2024/04/26 03:40:25;;;;;;;3.17;2.70;;;;;;;;;;5489363;26;20459;-78
2024/04/26 03:42:51;;;;;;;3.30;2.37;;;;;;;;;;5489088;26;20347;-78
2024/04/26 03:45:17;;;;;;;6.07;2.95;;;;;;;;;;5489358;26;20933;-79
2024/04/26 03:47:46;;;;;;;3.03;2.60;;;;;;;;;;5494808;26;20326;-78
2024/04/26 03:50:13;;;;;;;2.60;2.40;;;;;;;;;;5488323;26;20346;-78
2024/04/26 03:52:39;;;;;;;3.10;2.80;;;;;;;;;;5486836;26;20334;-78
2024/04/26 03:55:05;;;;;;;3.10;2.80;;;;;;;;;;5495028;26;20326;-78
2024/04/26 03:57:31;;;;;;;3.92;3.20;;;;;;;;;;5505188;26;20356;-78
2024/04/26 03:59:57;;;;;;;3.57;3.07;;;;;;;;;;5518177;26;20649;-78
2024/04/26 04:02:23;;;;;;;4.70;3.45;;;;;;;;;;5496772;26;20331;-78
2024/04/26 04:04:49;;;;;;;4.25;3.03;;;;;;;;;;5529750;26;20461;-78
2024/04/26 04:07:15;;;;;;;3.90;3.28;;;;;;;;;;5529471;26;20319;-79
2024/04/26 04:09:41;;;;;;;3.60;3.03;;;;;;;;;;5529556;26;20355;-79
2024/04/26 04:12:07;;;;;;;3.97;2.90;;;;;;;;;;5529485;26;20308;-78
2024/04/26 04:14:34;;;;;;;4.22;2.90;;;;;;;;;;5530202;26;20320;-78
2024/04/26 04:17:00;;;;;;;3.30;3.00;;;;;;;;;;5529553;26;20416;-78
2024/04/26 04:19:26;;;;;;;4.05;3.10;;;;;;;;;;5528701;26;20358;-78
2024/04/26 04:21:52;;;;;;;3.30;2.70;;;;;;;;;;5529281;26;20321;-78
2024/04/26 04:24:18;;;;;;;3.97;3.13;;;;;;;;;;5530358;26;20339;-79
2024/04/26 04:26:44;;;;;;;3.20;2.90;;;;;;;;;;5530296;26;20807;-78
2024/04/26 04:29:13;;;;;;;3.05;2.78;;;;;;;;;;5497006;26;20358;-79
2024/04/26 04:31:39;;;;;;;4.00;3.30;;;;;;;;;;5525570;26;20350;-78
2024/04/26 04:34:05;;;;;;;3.40;3.10;;;;;;;;;;5530220;26;20330;-78
2024/04/26 04:36:31;;;;;;;3.42;3.10;;;;;;;;;;5496823;26;20367;-78
2024/04/26 04:38:58;;;;;;;2.83;2.60;;;;;;;;;;5529477;26;20339;-78
2024/04/26 04:41:24;;;;;;;3.30;3.00;;;;;;;;;;5528847;26;20335;-79
2024/04/26 04:43:50;;;;;;;3.25;2.95;;;;;;;;;;5530784;26;20358;-80
2024/04/26 04:46:16;;;;;;;3.30;2.83;;;;;;;;;;5527855;26;20319;-79
2024/04/26 04:48:42;;;;;;;5.40;3.15;;;;;;;;;;5506438;26;20684;-77
2024/04/26 04:51:08;;;;;;;3.63;2.67;;;;;;;;;;5492745;26;20354;-80
2024/04/26 04:53:34;;;;;;;3.90;3.05;;;;;;;;;;5492331;26;20330;-77
2024/04/26 04:56:00;;;;;;;3.13;2.80;;;;;;;;;;5489519;26;20446;-77
2024/04/26 04:58:26;;;;;;;3.00;2.70;;;;;;;;;;5489349;26;20361;-78
2024/04/26 05:00:52;;;;;;;4.07;2.58;;;;;;;;;;5490589;26;20323;-78
2024/04/26 05:03:18;;;;;;;3.65;2.78;;;;;;;;;;5490187;26;20326;-78
2024/04/26 05:05:44;;;;;;;4.45;3.03;;;;;;;;;;5490682;26;20435;-77
2024/04/26 05:08:10;;;;;;;3.95;3.20;;;;;;;;;;5490116;26;20326;-78
2024/04/26 05:10:37;;;;;;;4.35;3.17;;;;;;;;;;5490657;26;20871;-78
2024/04/26 05:13:03;;;;;;;4.07;2.95;;;;;;;;;;5489730;26;20423;-78
2024/04/26 05:15:29;;;;;;;3.53;3.13;;;;;;;;;;5490327;26;20411;-79
2024/04/26 05:17:55;;;;;;;3.67;3.28;;;;;;;;;;5490644;26;20423;-78
2024/04/26 05:20:21;;;;;;;3.25;2.95;;;;;;;;;;5490618;26;20371;-79
2024/04/26 05:22:48;;;;;;;4.53;3.15;;;;;;;;;;5490774;26;20418;-81
2024/04/26 05:25:14;;;;;;;3.00;2.72;;;;;;;;;;5491374;26;20422;-81
2024/04/26 05:27:40;;;;;;;3.15;2.85;;;;;;;;;;5490519;26;20315;-81
2024/04/26 05:30:06;;;;;;;3.38;3.08;;;;;;;;;;5490150;26;20330;-81
2024/04/26 05:32:32;;;;;;;3.63;3.10;;;;;;;;;;5490030;26;20374;-81
2024/04/26 05:34:58;;;;;;;2.90;2.70;;;;;;;;;;5489810;26;20814;-81
2024/04/26 05:37:24;;;;;;;3.50;2.80;;;;;;;;;;5489851;26;20314;-81
2024/04/26 05:39:50;;;;;;;3.20;2.90;;;;;;;;;;5490111;26;20788;-81
2024/04/26 05:42:16;;;;;;;3.40;2.95;;;;;;;;;;5489475;26;20370;-81
2024/04/26 05:44:42;;;;;;;3.63;3.00;;;;;;;;;;5488977;26;20357;-81
2024/04/26 05:47:08;;;;;;;4.03;3.40;;;;;;;;;;5495010;26;20326;-82
2024/04/26 05:49:34;;;;;;;5.05;4.40;;;;;;;;;;5498212;26;20316;-81
2024/04/26 05:52:00;;;;;;;3.40;3.10;;;;;;;;;;5526734;26;20368;-81
2024/04/26 05:54:26;;;;;;;4.57;3.45;;;;;;;;;;5494080;26;20396;-81
2024/04/26 05:56:52;;;;;;;6.22;4.50;;;;;;;;;;5526511;26;20311;-82
2024/04/26 05:59:18;;;;;;;4.63;4.07;;;;;;;;;;5528784;26;20332;-79
2024/04/26 06:01:44;;;;;;;4.20;3.65;;;;;;;;;;5527784;26;20517;-79
2024/04/26 06:04:10;;;;;;;5.50;4.18;;;;;;;;;;5528121;26;20320;-78
2024/04/26 06:06:41;;;;;;;4.40;4.00;;;;;;;;;;5526228;26;20808;-79
2024/04/26 06:09:08;;;;;;;6.40;4.43;;;;;;;;;;5526846;26;20327;-78
2024/04/26 06:11:34;;;;;;;5.20;4.30;;;;;;;;;;5528588;26;20327;-79
2024/04/26 06:14:00;;;;;;;5.50;4.00;;;;;;;;;;5525747;26;20857;-80
2024/04/26 06:16:26;;;;;;;5.20;4.40;;;;;;;;;;5526778;26;20666;-79
2024/04/26 06:18:54;;;;;;;5.88;4.38;;;;;;;;;;5527183;26;20335;-79
2024/04/26 06:21:20;;;;;;;5.15;4.25;;;;;;;;;;5527584;26;20335;-78
2024/04/26 06:23:46;;;;;;;5.53;4.00;;;;;;;;;;5525888;26;20312;-78
2024/04/26 06:26:15;;;;;;;6.13;4.32;;;;;;;;;;5526927;26;20799;-78
2024/04/26 06:28:42;;;;;;;5.43;4.60;;;;;;;;;;5526053;26;20331;-78
2024/04/26 06:31:08;;;;;;;7.75;5.03;;;;;;;;;;5526755;26;20316;-78
2024/04/26 06:33:34;;;;;;;8.02;5.70;;;;;;;;;;5525762;26;20327;-78
2024/04/26 06:36:00;;;;;;;5.97;5.47;;;;;;;;;;5526198;26;20424;-78
2024/04/26 06:38:26;;;;;;;6.03;5.47;;;;;;;;;;5526058;26;20324;-79
2024/04/26 06:40:52;;;;;;;7.28;5.15;;;;;;;;;;5494366;26;20339;-79
2024/04/26 06:43:18;;;;;;;6.65;5.20;;;;;;;;;;5527062;26;20312;-79
2024/04/26 06:45:44;;;;;;;6.07;5.40;;;;;;;;;;5526836;26;20765;-79
2024/04/26 06:48:10;;;;;;;5.90;5.28;;;;;;;;;;5527228;26;20331;-79
2024/04/26 06:50:37;;;;;;;6.22;5.30;;;;;;;;;;5526651;26;20407;-79
2024/04/26 06:53:04;;;;;;;5.72;5.22;;;;;;;;;;5528016;26;20367;-79
2024/04/26 06:55:30;;;;;;;5.38;4.82;;;;;;;;;;5526574;26;20851;-80
2024/04/26 06:57:56;;;;;;;5.32;4.90;;;;;;;;;;5527160;26;20364;-79
2024/04/26 07:00:22;;;;;;;8.32;5.53;;;;;;;;;;5527804;26;20343;-79
2024/04/26 07:02:48;;;;;;;5.43;4.70;;;;;;;;;;5527905;26;20685;-79
2024/04/26 07:05:14;;;;;;;6.35;5.70;;;;;;;;;;5527229;26;20859;-78
2024/04/26 07:07:40;;;;;;;7.47;5.95;;;;;;;;;;5528786;26;20477;-78
2024/04/26 07:10:06;;;;;;;5.60;5.07;;;;;;;;;;5527362;26;20479;-78
2024/04/26 07:12:33;;;;;;;7.10;5.30;;;;;;;;;;5527104;26;20749;-79
2024/04/26 07:14:59;;;;;;;6.10;5.43;;;;;;;;;;5528620;26;20360;-78
2024/04/26 07:17:25;;;;;;;5.90;5.20;;;;;;;;;;5528838;26;20371;-79
2024/04/26 07:19:51;;;;;;;6.03;5.40;;;;;;;;;;5529871;26;20400;-80
2024/04/26 07:22:17;;;;;;;5.97;5.33;;;;;;;;;;5530492;26;20390;-80
2024/04/26 07:24:43;;;;;;;7.00;5.72;;;;;;;;;;5529795;26;20810;-79
2024/04/26 07:27:09;;;;;;;6.13;5.53;;;;;;;;;;5530028;26;20358;-80
2024/04/26 07:29:35;;;;;;;7.13;5.63;;;;;;;;;;5529923;26;20909;-80
2024/04/26 07:32:01;;;;;;;5.63;5.03;;;;;;;;;;5527557;26;20355;-80
2024/04/26 07:34:29;;;;;;;5.50;5.00;;;;;;;;;;5526406;26;20323;-81
2024/04/26 07:36:55;;;;;;;7.63;4.85;;;;;;;;;;5529910;26;20357;-80
2024/04/26 07:39:23;;;;;;;8.55;5.63;;;;;;;;;;5530161;26;20339;-80
2024/04/26 07:41:49;;;;;;;7.90;6.20;;;;;;;;;;5529798;26;20660;-80
2024/04/26 07:44:15;;;;;;;7.25;6.40;;;;;;;;;;5529109;26;20371;-80
2024/04/26 07:46:41;;;;;;;8.65;6.15;;;;;;;;;;5469671;26;20382;-79
2024/04/26 07:49:07;;;;;;;7.20;5.78;;;;;;;;;;5492074;26;20827;-80
2024/04/26 07:51:34;;;;;;;7.43;6.23;;;;;;;;;;5491960;26;20346;-80
2024/04/26 07:54:00;;;;;;;6.88;5.80;;;;;;;;;;5491313;26;20326;-80
2024/04/26 07:56:26;;;;;;;22.40;12.80;;;;;;;;;;5491132;26;20389;-80
2024/04/26 07:58:54;;;;;;;6.05;5.03;;;;;;;;;;5491241;26;20329;-80
2024/04/26 08:01:20;;;;;;;5.13;4.63;;;;;;;;;;5491753;26;20322;-80
2024/04/26 08:03:46;;;;;;;6.32;4.90;;;;;;;;;;5491796;26;20318;-80
2024/04/26 08:06:12;;;;;;;4.80;4.30;;;;;;;;;;5491819;26;20319;-80
2024/04/26 08:08:38;;;;;;;4.50;3.88;;;;;;;;;;5490657;26;20856;-80
2024/04/26 08:11:04;;;;;;;4.80;4.30;;;;;;;;;;5490437;26;20334;-80
2024/04/26 08:13:30;;;;;;;3.72;3.38;;;;;;;;;;5490611;26;20326;-80
2024/04/26 08:15:56;;;;;;;3.58;3.13;;;;;;;;;;5490646;26;20373;-80
2024/04/26 08:18:22;;;;;;;4.07;3.67;;;;;;;;;;5490697;26;20326;-80
2024/04/26 08:20:50;;;;;;;3.53;3.22;;;;;;;;;;5491260;26;20363;-80
2024/04/26 08:23:16;;;;;;;3.97;3.58;;;;;;;;;;5491098;26;20420;-80
2024/04/26 08:25:42;;;;;;;4.28;3.55;;;;;;;;;;5491195;26;20881;-79
2024/04/26 08:28:09;;;;;;;7.45;4.18;;;;;;;;;;5491531;26;20362;-79
2024/04/26 08:30:35;;;;;;;6.50;4.63;;;;;;;;;;5491745;26;20331;-79
2024/04/26 08:33:01;;;;;;;5.05;4.18;;;;;;;;;;5491628;26;20375;-79
2024/04/26 08:35:28;;;;;;;3.70;3.40;;;;;;;;;;5490984;26;20733;-79
2024/04/26 08:37:54;;;;;;;3.55;3.17;;;;;;;;;;5514769;26;20432;-79
2024/04/26 08:40:21;;;;;;;4.60;3.15;;;;;;;;;;5527779;26;20331;-79
2024/04/26 08:42:47;;;;;;;2.78;2.58;;;;;;;;;;5528656;26;20955;-81
2024/04/26 08:45:14;;;;;;;4.57;2.38;;;;;;;;;;5528934;26;20336;-79
2024/04/26 08:47:40;;;;;;;2.53;2.05;;;;;;;;;;5530625;26;20420;-79
2024/04/26 08:50:06;;;;;;;2.72;2.28;;;;;;;;;;5530174;26;20359;-79
2024/04/26 08:52:33;;;;;;;2.83;2.60;;;;;;;;;;5529499;26;20698;-79
2024/04/26 08:55:00;;;;;;;3.83;2.65;;;;;;;;;;5529416;26;20828;-79
2024/04/26 08:57:26;;;;;;;2.60;2.30;;;;;;;;;;5529304;26;20344;-80
2024/04/26 08:59:54;;;;;;;3.47;2.80;;;;;;;;;;5528594;26;20796;-80
2024/04/26 09:02:20;;;;;;;4.68;2.88;;;;;;;;;;5528618;26;20734;-79
2024/04/26 09:04:47;;;;;;;2.70;2.40;;;;;;;;;;5528983;26;20328;-80
2024/04/26 09:07:13;;;;;;;2.85;2.58;;;;;;;;;;5528123;26;20395;-79
2024/04/26 09:09:39;;;;;;;4.13;3.25;;;;;;;;;;5527407;26;20737;-79
2024/04/26 09:12:06;;;;;;;3.50;2.75;;;;;;;;;;5526751;26;20360;-79
2024/04/26 09:14:32;;;;;;;3.95;2.50;;;;;;;;;;5526278;26;20336;-78
2024/04/26 09:16:58;;;;;;;4.97;2.70;;;;;;;;;;5526187;26;20440;-78
2024/04/26 09:19:24;;;;;;;3.80;2.97;;;;;;;;;;5526383;26;20836;-78
2024/04/26 09:21:50;;;;;;;3.85;2.50;;;;;;;;;;5526427;26;20328;-80
2024/04/26 09:24:16;;;;;;;3.97;2.57;;;;;;;;;;5526184;26;20331;-78
2024/04/26 09:26:42;;;;;;;3.88;2.60;;;;;;;;;;5526671;26;20332;-78
2024/04/26 09:29:08;;;;;;;3.20;2.90;;;;;;;;;;5526923;26;20847;-78
2024/04/26 09:31:34;;;;;;;2.90;2.60;;;;;;;;;;5527425;26;20320;-78
2024/04/26 09:34:00;;;;;;;3.60;2.38;;;;;;;;;;5526643;26;20416;-78
2024/04/26 09:36:26;;;;;;;3.30;2.60;;;;;;;;;;5527546;26;20328;-79
2024/04/26 09:38:55;;;;;;;4.32;2.45;;;;;;;;;;5526033;26;20386;-78
2024/04/26 09:41:23;;;;;;;5.30;3.35;;;;;;;;;;5501361;26;20370;-79
2024/04/26 09:43:50;;;;;;;2.88;2.10;;;;;;;;;;5489857;26;20326;-79
2024/04/26 09:46:17;;;;;;;2.58;2.30;;;;;;;;;;5489426;26;20326;-78
2024/04/26 09:48:44;;;;;;;2.72;1.80;;;;;;;;;;5489355;26;20326;-78
2024/04/26 09:51:12;;;;;;;2.28;1.70;;;;;;;;;;5489244;26;20319;-78
2024/04/26 09:53:42;;;;;;;3.10;2.00;;;;;;;;;;5489203;26;20318;-78
2024/04/26 09:56:08;;;;;;;2.95;1.63;;;;;;;;;;5488990;26;20326;-78
2024/04/26 09:58:34;;;;;;;1.80;1.50;;;;;;;;;;5487902;26;20462;-78
2024/04/26 10:01:01;;;;;;;2.40;1.42;;;;;;;;;;5488985;26;20366;-78
2024/04/26 10:03:28;;;;;;;2.40;1.40;;;;;;;;;;5489999;26;20418;-78
2024/04/26 10:06:03;;;;;;;2.28;1.20;;;;;;;;;;5489674;26;20420;-78
2024/04/26 10:08:33;;;;;;;1.90;0.90;;;;;;;;;;5490525;26;20326;-78
2024/04/26 10:11:07;;;;;;;2.10;1.20;;;;;;;;;;5490388;26;20827;-79
2024/04/26 10:13:43;;;;;;;2.17;1.42;;;;;;;;;;5490729;26;20337;-79
2024/04/26 10:16:09;;;;;;;2.22;1.50;;;;;;;;;;5489323;26;20366;-77
2024/04/26 10:18:36;;;;;;;2.33;1.50;;;;;;;;;;5489444;26;20351;-78
2024/04/26 10:21:02;;;;;;;2.75;1.80;;;;;;;;;;5489429;26;20319;-79
2024/04/26 10:23:28;;;;;;;2.03;1.43;;;;;;;;;;5489516;26;20357;-79
2024/04/26 10:25:54;;;;;;;3.53;1.50;;;;;;;;;;5489669;26;20840;-79
2024/04/26 10:28:26;;;;;;;4.13;1.75;;;;;;;;;;5488777;26;20334;-79
2024/04/26 10:30:53;;;;;;;1.75;1.20;;;;;;;;;;5518794;26;20374;-79
2024/04/26 10:33:19;;;;;;;1.90;1.38;;;;;;;;;;5526146;26;20324;-79
2024/04/26 10:35:46;;;;;;;3.20;1.47;;;;;;;;;;5525571;26;20360;-78
2024/04/26 10:38:12;;;;;;;1.70;0.93;;;;;;;;;;5526316;26;20319;-78
2024/04/26 10:40:48;;;;;;;1.73;0.80;;;;;;;;;;5525980;26;20404;-79
2024/04/26 10:43:24;;;;;;;1.52;0.90;;;;;;;;;;5525893;26;20364;-79
2024/04/26 10:45:51;;;;;;;1.40;0.80;;;;;;;;;;5525713;26;20368;-78
2024/04/26 10:48:17;;;;;;;0.70;0.68;;;;;;;;;;5525566;26;20369;-79
2024/04/26 10:50:43;;;;;;;1.77;0.77;;;;;;;;;;5526325;26;20669;-79
2024/04/26 10:53:09;;;;;;;1.85;0.80;;;;;;;;;;5525817;26;20319;-78
2024/04/26 10:55:38;;;;;;;1.55;0.80;;;;;;;;;;5526072;26;20741;-78
2024/04/26 10:58:04;;;;;;;2.00;0.95;;;;;;;;;;5525850;26;20327;-78
2024/04/26 11:00:37;;;;;;;1.13;0.80;;;;;;;;;;5526005;26;20323;-79
2024/04/26 11:03:07;;;;;;;0.80;0.63;;;;;;;;;;5527956;26;20311;-78
2024/04/26 11:05:41;;;;;;;1.50;0.90;;;;;;;;;;5526309;26;20311;-78
2024/04/26 11:08:07;;;;;;;1.40;0.80;;;;;;;;;;5524788;26;20304;-77
2024/04/26 11:10:33;;;;;;;1.17;0.90;;;;;;;;;;5527096;26;20324;-78
2024/04/26 11:12:59;;;;;;;1.52;1.10;;;;;;;;;;5528272;26;20315;-78
2024/04/26 11:15:25;;;;;;;2.85;1.05;;;;;;;;;;5528263;26;20379;-78
2024/04/26 11:17:51;;;;;;;1.60;1.00;;;;;;;;;;5528431;26;20653;-77
2024/04/26 11:20:17;;;;;;;1.42;0.82;;;;;;;;;;5528487;26;20418;-79
2024/04/26 11:22:43;;;;;;;2.90;0.90;;;;;;;;;;5529452;26;20366;-77
2024/04/26 11:25:09;;;;;;;1.65;0.90;;;;;;;;;;5529236;26;20324;-78
2024/04/26 11:27:35;;;;;;;1.10;0.90;;;;;;;;;;5528286;26;20323;-78
2024/04/26 11:30:01;;;;;;;1.33;0.98;;;;;;;;;;5529191;26;20349;-78
2024/04/26 11:32:27;;;;;;;1.63;1.00;;;;;;;;;;5528144;26;20324;-78
2024/04/26 11:34:53;;;;;;;2.17;1.00;;;;;;;;;;5528612;26;20348;-78
2024/04/26 11:37:19;;;;;;;1.15;0.80;;;;;;;;;;5528310;26;20372;-78
2024/04/26 11:39:46;;;;;;;0.90;0.77;;;;;;;;;;5528457;26;20358;-78
2024/04/26 11:42:12;;;;;;;1.10;0.70;;;;;;;;;;5528952;26;20435;-79
2024/04/26 11:44:38;;;;;;;1.30;0.70;;;;;;;;;;5529606;26;20343;-78
2024/04/26 11:47:04;;;;;;;1.80;0.70;;;;;;;;;;5501372;26;20379;-79
2024/04/26 11:49:31;;;;;;;1.02;0.70;;;;;;;;;;5492672;26;20825;-79
2024/04/26 11:51:58;;;;;;;1.13;0.70;;;;;;;;;;5492780;26;20330;-79
2024/04/26 11:54:24;;;;;;;2.58;1.55;;;;;;;;;;5492401;26;20699;-79
2024/04/26 11:56:50;;;;;;;1.77;1.15;;;;;;;;;;5492130;26;20326;-79
2024/04/26 11:59:16;;;;;;;1.50;0.90;;;;;;;;;;5492159;26;20423;-78
2024/04/26 12:01:43;;;;;;;0.80;0.80;;;;;;;;;;5492733;26;20404;-78
2024/04/26 12:04:09;;;;;;;1.48;0.90;;;;;;;;;;5492428;26;20314;-78
2024/04/26 12:06:35;;;;;;;1.40;1.10;;;;;;;;;;5458239;26;20327;-78
2024/04/26 12:09:01;;;;;;;2.10;1.10;;;;;;;;;;5491056;26;20332;-78
2024/04/26 12:11:27;;;;;;;1.65;1.20;;;;;;;;;;5492559;26;20338;-79
2024/04/26 12:13:56;;;;;;;1.70;0.80;;;;;;;;;;5492282;26;20322;-79
2024/04/26 12:16:23;;;;;;;1.90;1.00;;;;;;;;;;5491628;26;20479;-79
2024/04/26 12:18:49;;;;;;;1.40;0.93;;;;;;;;;;5491897;26;20330;-79
2024/04/26 12:21:16;;;;;;;1.38;1.00;;;;;;;;;;5491472;26;20365;-79
2024/04/26 12:23:42;;;;;;;3.20;1.00;;;;;;;;;;5492776;26;20422;-78
2024/04/26 12:26:18;;;;;;;2.58;0.80;;;;;;;;;;5490898;26;20425;-78
2024/04/26 12:28:44;;;;;;;0.90;0.63;;;;;;;;;;5489982;26;20365;-78
2024/04/26 12:31:10;;;;;;;1.20;0.70;;;;;;;;;;5490166;26;20322;-79
2024/04/26 12:33:36;;;;;;;1.20;0.80;;;;;;;;;;5490331;26;21299;-77
2024/04/26 12:36:02;;;;;;;1.60;0.90;;;;;;;;;;5490130;26;20326;-77
2024/04/26 12:38:28;;;;;;;1.83;0.80;;;;;;;;;;5489918;26;20424;-77
2024/04/26 12:40:54;;;;;;;1.40;0.70;;;;;;;;;;5517724;26;20692;-77
2024/04/26 12:43:20;;;;;;;1.43;0.70;;;;;;;;;;5527233;26;20324;-78
2024/04/26 12:45:46;;;;;;;1.55;0.80;;;;;;;;;;5527410;26;20343;-80
2024/04/26 12:48:12;;;;;;;1.73;0.70;;;;;;;;;;5496363;26;20359;-79
2024/04/26 12:50:39;;;;;;;0.80;0.57;;;;;;;;;;5528542;26;20329;-79
2024/04/26 12:53:05;;;;;;;0.90;0.68;;;;;;;;;;5528480;26;20348;-79
2024/04/26 12:55:31;;;;;;;1.25;0.50;;;;;;;;;;5528453;26;20335;-79
2024/04/26 12:57:57;;;;;;;0.80;0.50;;;;;;;;;;5528454;26;20820;-79
2024/04/26 13:00:23;;;;;;;0.60;0.50;;;;;;;;;;5528163;26;20427;-79
2024/04/26 13:02:52;;;;;;;1.50;0.60;;;;;;;;;;5528394;26;20759;-79
2024/04/26 13:05:18;;;;;;;1.40;0.77;;;;;;;;;;5528510;26;20594;-78
2024/04/26 13:07:45;;;;;;;0.85;0.60;;;;;;;;;;5528274;26;20804;-78
2024/04/26 13:10:13;;;;;;;1.10;0.45;;;;;;;;;;5530586;26;20355;-79
2024/04/26 13:12:39;;;;;;;0.97;0.60;;;;;;;;;;5530980;26;20315;-79
2024/04/26 13:15:05;;;;;;;1.08;0.63;;;;;;;;;;5529478;26;20359;-79
2024/04/26 13:17:31;;;;;;;1.13;0.60;;;;;;;;;;5528212;26;20324;-78
2024/04/26 13:19:57;;;;;;;1.83;0.70;;;;;;;;;;5529866;26;20828;-79
2024/04/26 13:22:23;;;;;;;0.77;0.60;;;;;;;;;;5529758;26;20429;-79
2024/04/26 13:24:49;;;;;;;1.60;0.55;;;;;;;;;;5527928;26;20398;-79
2024/04/26 13:27:15;;;;;;;0.68;0.60;;;;;;;;;;5528177;26;20327;-80
2024/04/26 13:29:42;;;;;;;1.40;0.87;;;;;;;;;;5527872;26;20720;-80
2024/04/26 13:32:08;;;;;;;2.30;0.80;;;;;;;;;;5526873;26;20409;-80
2024/04/26 13:34:34;;;;;;;0.95;0.85;;;;;;;;;;5527913;26;20335;-80
2024/04/26 13:37:00;;;;;;;1.67;0.80;;;;;;;;;;5527921;26;20962;-80
2024/04/26 13:39:26;;;;;;;1.85;0.90;;;;;;;;;;5527301;26;20340;-79
2024/04/26 13:41:52;;;;;;;0.98;0.68;;;;;;;;;;5499239;26;20902;-79
2024/04/26 13:44:18;;;;;;;0.98;0.70;;;;;;;;;;5490740;26;20392;-79
2024/04/26 13:46:44;;;;;;;2.53;0.93;;;;;;;;;;5490733;26;20334;-80
2024/04/26 13:49:16;;;;;;;1.50;0.85;;;;;;;;;;5491074;26;20861;-79
2024/04/26 13:51:44;;;;;;;1.67;0.75;;;;;;;;;;5491377;26;20322;-79
2024/04/26 13:54:10;;;;;;;1.90;0.60;;;;;;;;;;5490539;26;20366;-79
2024/04/26 13:56:36;;;;;;;1.10;0.70;;;;;;;;;;5490520;26;20423;-79
2024/04/26 13:59:02;;;;;;;2.10;0.70;;;;;;;;;;5490780;26;20327;-79
2024/04/26 14:01:28;;;;;;;0.82;0.60;;;;;;;;;;5490076;26;20362;-79
2024/04/26 14:03:54;;;;;;;0.82;0.60;;;;;;;;;;5490014;26;20378;-79
2024/04/26 14:06:20;;;;;;;1.42;0.60;;;;;;;;;;5490818;26;20379;-78
2024/04/26 14:08:49;;;;;;;1.08;0.80;;;;;;;;;;5491286;26;20459;-79
2024/04/26 14:11:15;;;;;;;1.02;0.60;;;;;;;;;;5489375;26;20318;-79
2024/04/26 14:13:42;;;;;;;1.90;0.70;;;;;;;;;;5489342;26;20334;-78
2024/04/26 14:16:18;;;;;;;2.15;0.70;;;;;;;;;;5489849;26;20322;-79
2024/04/26 14:18:47;;;;;;;6.67;4.70;;;;;;;;;;5489841;26;20356;-79
2024/04/26 14:21:14;;;;;;;2.43;1.67;;;;;;;;;;5489882;26;20322;-79
2024/04/26 14:23:40;;;;;;;1.00;0.90;;;;;;;;;;5489134;26;20382;-79
2024/04/26 14:26:06;;;;;;;1.30;0.80;;;;;;;;;;5489425;26;20456;-79
2024/04/26 14:28:32;;;;;;;0.85;0.57;;;;;;;;;;5489242;26;20330;-79
2024/04/26 14:30:58;;;;;;;1.23;0.70;;;;;;;;;;5489484;26;20383;-79
2024/04/26 14:33:26;;;;;;;0.88;0.60;;;;;;;;;;5489044;26;20322;-78
2024/04/26 14:35:52;;;;;;;0.82;0.60;;;;;;;;;;5489888;26;20398;-78
2024/04/26 14:38:18;;;;;;;0.82;0.68;;;;;;;;;;5488872;26;20391;-78